CheckWX is a tool to help pilots better visualize weather data.  It is not intended as a substitute for an official pre-flight weather briefing.

06:10:06 UTC

EBBL TAF
Kleine Brogel Air Base Airport
Kleine Brogel, Belgium
TAF EBBL 071541Z 0719/0807 23010KT 9999 FEW020 BKN035 BECMG 0802/0804 22015KT BKN012 TEMPO 0805/0807 4000 -RADZ BKN008

Dec-7@
19:00 UTC

Dec-7 @ 19:00 UTC

Dec-8@
02:00 UTC

Dec-8 @ 02:00 UTC

TAF EBBL 071541Z 0719/0807 23010KT 9999 FEW020 BKN035

Expired

Wind
  • 230° at 10 KTS
Cloud Levels
  • Few at 2,000' AGL
  • Broken at 3,500' AGL

Dec-8@
02:00 UTC

Dec-8 @ 02:00 UTC

Dec-8@
07:00 UTC

Dec-8 @ 07:00 UTC

BECMG 0802/0804 22015KT BKN012

Becoming

Becoming Conditions expected by Sun, Dec 8, 2019 @ 04:00 UTC

Wind
  • 220° at 15 KTS
Cloud Levels
  • Broken at 1,200' AGL

Dec-8@
05:00 UTC

Dec-8 @ 05:00 UTC

Dec-8@
07:00 UTC

Dec-8 @ 07:00 UTC

TEMPO 0805/0807 4000 -RADZ BKN008

Temporary

Temporary Changes expected for less than half the time period

Conditions
Light Rain, Light Drizzle
Cloud Levels
  • Broken at 800' AGL